Terminal Aerodrome Forecast
Issued by NWS Tiyan, Guam

Home | Current Version | Previous Version | Text Only | Print | Product List | Glossary On
Versions: 1 2 3 4 5 6 7 8 9 10 11 12 13 14
000
FTPQ31 PGUM 281720
TAFGUM
TAF
PGUM 281720Z 2818/2924 09011KT P6SM VCSH FEW016 SCT040 BKN120
      TEMPO 2818/2822 09016KT 4SM SHRA SCT014 BKN025
     FM290000 09013KT P6SM VCSH FEW016 SCT040 BKN120=

USA.gov is the U.S. government's official web portal to all federal, state and local government web resources and services.